Arthur Maersk — OXJH2 — position and weather

sailwx.info

Track history (hours):
 
Tides and Currents Weather Stations Pressure Air Temp Water Temp Dewpoint Dewpoint Depression Visibility Wind Speed Wind Dir Waves Ship Positions

Arthur Maersk

Last reported at 2017-May-17 13:51 UTC. Time now 2017-May-28 20:29 UTC.
Position N 36°18' E 015°03'.
Warning: this ship's position is 11 days out of date.

Length 352 m; draft 12.7 m.

Type: Cargo ship. MMSI: 220221000.

Date/timePositionNaut miles runAvg speedWind from/ knotsBaromVisibWave heightAir tempDewpointWater temp
2017-May-17 13:51N 36°18' E 015°03'617.2
2017-May-17 13:30N 36°20' E 014°56'817.1
2017-May-17 13:00N 36°22' E 014°46'816.9
2017-May-17 12:30N 36°23' E 014°36'917.1
2017-May-17 12:00N 36°27' E 014°26'917.3
2017-May-17 11:30N 36°30' E 014°16'816.9
2017-May-17 11:00N 36°33' E 014°06'816.8
2017-May-17 10:30N 36°36' E 013°56'816.8
2017-May-17 10:00N 36°38' E 013°46'816.9
2017-May-17 09:31N 36°41' E 013°36'917.0
2017-May-17 09:00N 36°43' E 013°26'917.3
2017-May-17 08:30N 36°46' E 013°15'1117.2
2017-May-17 07:51N 36°50' E 013°02'29316.7
2017-May-16 14:17N 37°19' E 006°56'1517.7
2017-May-16 13:27N 37°18' E 006°38'917.7
2017-May-16 12:57N 37°18' E 006°27'817.7
2017-May-16 12:30N 37°18' E 006°17'917.6
2017-May-16 12:00N 37°18' E 006°06'917.4
2017-May-16 11:30N 37°17' E 005°55'817.2
2017-May-16 11:00N 37°16' E 005°44'1017.2
2017-May-16 10:26N 37°15' E 005°32'817.2
2017-May-16 09:57N 37°15' E 005°21'4017.2
2017-May-16 07:37N 37°11' E 004°31'517.4
2017-May-16 07:18N 37°10' E 004°24'917.0
2017-May-16 06:45N 37°10' E 004°13'517.0
2017-May-16 06:29N 37°09' E 004°07'817.0
2017-May-16 06:00N 37°09' E 003°57'817.0
2017-May-16 05:30N 37°08' E 003°46'917.1
2017-May-16 05:00N 37°07' E 003°35'817.0
2017-May-16 04:30N 37°06' E 003°25'816.9
2017-May-16 04:00N 37°05' E 003°14'916.9
2017-May-16 03:30N 37°05' E 003°04'816.8
2017-May-16 03:00N 37°04' E 002°53'816.7
2017-May-16 02:30N 37°03' E 002°43'816.6
2017-May-16 02:00N 37°02' E 002°33'816.4
2017-May-16 01:30N 37°02' E 002°22'816.4
2017-May-16 01:00N 36°60' E 002°12'816.6
2017-May-16 00:30N 36°59' E 002°02'916.6
2017-May-15 23:57N 36°57' E 001°51'1216.5
2017-May-15 23:15N 36°55' E 001°36'417.1
2017-May-15 23:00N 36°54' E 001°31'816.9
2017-May-15 22:30N 36°52' E 001°21'917.0
2017-May-15 22:00N 36°50' E 001°11'1216.7
2017-May-15 21:16N 36°47' E 000°56'516.8
2017-May-15 20:58N 36°45' E 000°50'816.8
2017-May-15 20:30N 36°43' E 000°41'816.8
2017-May-15 20:00N 36°42' E 000°30'816.6
2017-May-15 19:30N 36°39' E 000°20'816.6
2017-May-15 19:00N 36°37' E 000°10'816.6
2017-May-15 18:30N 36°35' E 000°00'816.5
2017-May-15 18:00N 36°33' W 000°10'816.5
2017-May-15 17:30N 36°31' W 000°20'2616.7
2017-May-15 15:56N 36°24' W 000°51'716.5
2017-May-15 15:31N 36°23' W 000°60'24616.4
2017-May-15 00:32N 35°53' W 006°02'115.4
2017-May-15 00:30N 35°53' W 006°03'1215.7
2017-May-14 23:44N 35°53' W 006°17'6716.4
2017-May-14 19:39N 35°54' W 007°40'516.5
2017-May-14 19:20N 35°54' W 007°47'1916.7
2017-May-14 18:11N 35°55' W 008°10'416.7
2017-May-14 17:58N 35°55' W 008°15'1116.8
2017-May-14 17:20N 35°55' W 008°28'3616.7
2017-May-14 15:09N 35°56' W 009°13'316.8
2017-May-14 14:59N 35°56' W 009°17'816.8
2017-May-14 14:30N 35°56' W 009°27'1716.9
2017-May-14 13:30N 35°57' W 009°47'817.0
2017-May-14 13:00N 35°57' W 009°58'66517.3
2017-May-12 22:32N 37°06' W 023°41'116.4
2017-May-12 22:30N 37°06' W 023°41'917.4
2017-May-12 22:00N 37°06' W 023°52'917.3
2017-May-12 21:30N 37°06' W 024°03'917.3
2017-May-12 21:01N 37°06' W 024°14'917.4
2017-May-12 20:30N 37°07' W 024°25'917.4
2017-May-12 20:00N 37°07' W 024°36'917.3
2017-May-12 19:30N 37°07' W 024°47'917.6
2017-May-12 19:00N 37°07' W 024°58'917.5
2017-May-12 18:30N 37°08' W 025°09'917.5
2017-May-12 18:00N 37°08' W 025°19'917.5
2017-May-12 17:30N 37°08' W 025°30'917.6
2017-May-12 17:00N 37°08' W 025°42'917.7
2017-May-12 16:30N 37°08' W 025°53'917.4
2017-May-12 16:00N 37°08' W 026°04'917.2
2017-May-12 15:30N 37°08' W 026°14'917.2
2017-May-12 15:01N 37°08' W 026°25'917.3
2017-May-12 14:30N 37°08' W 026°36'1717.4
2017-May-12 13:30N 37°08' W 026°58'917.4
2017-May-12 13:00N 37°08' W 027°09'917.3
2017-May-12 12:30N 37°08' W 027°20'1917.2
2017-May-12 11:22N 37°08' W 027°44'1317.1
2017-May-12 10:38N 37°08' W 027°60'217.6
2017-May-12 10:31N 37°08' W 028°03'916.9
2017-May-12 10:00N 37°07' W 028°13'917.1
2017-May-12 09:28N 37°07' W 028°25'817.1
2017-May-12 09:00N 37°07' W 028°35'917.2
2017-May-12 08:30N 37°07' W 028°46'817.3
2017-May-12 08:00N 37°07' W 028°56'917.3
2017-May-12 07:31N 37°07' W 029°07'917.6
2017-May-12 06:59N 37°07' W 029°19'817.7
2017-May-12 06:30N 37°06' W 029°29'917.3
2017-May-12 06:01N 37°06' W 029°40'  
Track history (hours):
 
Tides and Currents Weather Stations Pressure Air Temp Water Temp Dewpoint Dewpoint Depression Visibility Wind Speed Wind Dir Waves Ship Positions

Arthur Maersk

Last reported at 2017-May-17 13:51 UTC. Time now 2017-May-28 20:29 UTC.
Position N 36°18' E 015°03'.
Warning: this ship's position is 11 days out of date.

Length 352 m; draft 12.7 m.

Type: Cargo ship. MMSI: 220221000.

Date/timePositionNaut miles runAvg speedWind from/ knotsBaromVisibWave heightAir tempDewpointWater temp
2017-May-17 13:51N 36°18' E 015°03'617.2
2017-May-17 13:30N 36°20' E 014°56'817.1
2017-May-17 13:00N 36°22' E 014°46'816.9
2017-May-17 12:30N 36°23' E 014°36'917.1
2017-May-17 12:00N 36°27' E 014°26'917.3
2017-May-17 11:30N 36°30' E 014°16'816.9
2017-May-17 11:00N 36°33' E 014°06'816.8
2017-May-17 10:30N 36°36' E 013°56'816.8
2017-May-17 10:00N 36°38' E 013°46'816.9
2017-May-17 09:31N 36°41' E 013°36'917.0
2017-May-17 09:00N 36°43' E 013°26'917.3
2017-May-17 08:30N 36°46' E 013°15'1117.2
2017-May-17 07:51N 36°50' E 013°02'29316.7
2017-May-16 14:17N 37°19' E 006°56'1517.7
2017-May-16 13:27N 37°18' E 006°38'917.7
2017-May-16 12:57N 37°18' E 006°27'817.7
2017-May-16 12:30N 37°18' E 006°17'917.6
2017-May-16 12:00N 37°18' E 006°06'917.4
2017-May-16 11:30N 37°17' E 005°55'817.2
2017-May-16 11:00N 37°16' E 005°44'1017.2
2017-May-16 10:26N 37°15' E 005°32'817.2
2017-May-16 09:57N 37°15' E 005°21'4017.2
2017-May-16 07:37N 37°11' E 004°31'517.4
2017-May-16 07:18N 37°10' E 004°24'917.0
2017-May-16 06:45N 37°10' E 004°13'517.0
2017-May-16 06:29N 37°09' E 004°07'817.0
2017-May-16 06:00N 37°09' E 003°57'817.0
2017-May-16 05:30N 37°08' E 003°46'917.1
2017-May-16 05:00N 37°07' E 003°35'817.0
2017-May-16 04:30N 37°06' E 003°25'816.9
2017-May-16 04:00N 37°05' E 003°14'916.9
2017-May-16 03:30N 37°05' E 003°04'816.8
2017-May-16 03:00N 37°04' E 002°53'816.7
2017-May-16 02:30N 37°03' E 002°43'816.6
2017-May-16 02:00N 37°02' E 002°33'816.4
2017-May-16 01:30N 37°02' E 002°22'816.4
2017-May-16 01:00N 36°60' E 002°12'816.6
2017-May-16 00:30N 36°59' E 002°02'916.6
2017-May-15 23:57N 36°57' E 001°51'1216.5
2017-May-15 23:15N 36°55' E 001°36'417.1
2017-May-15 23:00N 36°54' E 001°31'816.9
2017-May-15 22:30N 36°52' E 001°21'917.0
2017-May-15 22:00N 36°50' E 001°11'1216.7
2017-May-15 21:16N 36°47' E 000°56'516.8
2017-May-15 20:58N 36°45' E 000°50'816.8
2017-May-15 20:30N 36°43' E 000°41'816.8
2017-May-15 20:00N 36°42' E 000°30'816.6
2017-May-15 19:30N 36°39' E 000°20'816.6
2017-May-15 19:00N 36°37' E 000°10'816.6
2017-May-15 18:30N 36°35' E 000°00'816.5
2017-May-15 18:00N 36°33' W 000°10'816.5
2017-May-15 17:30N 36°31' W 000°20'2616.7
2017-May-15 15:56N 36°24' W 000°51'716.5
2017-May-15 15:31N 36°23' W 000°60'24616.4
2017-May-15 00:32N 35°53' W 006°02'115.4
2017-May-15 00:30N 35°53' W 006°03'1215.7
2017-May-14 23:44N 35°53' W 006°17'6716.4
2017-May-14 19:39N 35°54' W 007°40'516.5
2017-May-14 19:20N 35°54' W 007°47'1916.7
2017-May-14 18:11N 35°55' W 008°10'416.7
2017-May-14 17:58N 35°55' W 008°15'1116.8
2017-May-14 17:20N 35°55' W 008°28'3616.7
2017-May-14 15:09N 35°56' W 009°13'316.8
2017-May-14 14:59N 35°56' W 009°17'816.8
2017-May-14 14:30N 35°56' W 009°27'1716.9
2017-May-14 13:30N 35°57' W 009°47'817.0
2017-May-14 13:00N 35°57' W 009°58'66517.3
2017-May-12 22:32N 37°06' W 023°41'116.4
2017-May-12 22:30N 37°06' W 023°41'917.4
2017-May-12 22:00N 37°06' W 023°52'917.3
2017-May-12 21:30N 37°06' W 024°03'917.3
2017-May-12 21:01N 37°06' W 024°14'917.4
2017-May-12 20:30N 37°07' W 024°25'917.4
2017-May-12 20:00N 37°07' W 024°36'917.3
2017-May-12 19:30N 37°07' W 024°47'917.6
2017-May-12 19:00N 37°07' W 024°58'917.5
2017-May-12 18:30N 37°08' W 025°09'917.5
2017-May-12 18:00N 37°08' W 025°19'917.5
2017-May-12 17:30N 37°08' W 025°30'917.6
2017-May-12 17:00N 37°08' W 025°42'917.7
2017-May-12 16:30N 37°08' W 025°53'917.4
2017-May-12 16:00N 37°08' W 026°04'917.2
2017-May-12 15:30N 37°08' W 026°14'917.2
2017-May-12 15:01N 37°08' W 026°25'917.3
2017-May-12 14:30N 37°08' W 026°36'1717.4
2017-May-12 13:30N 37°08' W 026°58'917.4
2017-May-12 13:00N 37°08' W 027°09'917.3
2017-May-12 12:30N 37°08' W 027°20'1917.2
2017-May-12 11:22N 37°08' W 027°44'1317.1
2017-May-12 10:38N 37°08' W 027°60'217.6
2017-May-12 10:31N 37°08' W 028°03'916.9
2017-May-12 10:00N 37°07' W 028°13'917.1
2017-May-12 09:28N 37°07' W 028°25'817.1
2017-May-12 09:00N 37°07' W 028°35'917.2
2017-May-12 08:30N 37°07' W 028°46'817.3
2017-May-12 08:00N 37°07' W 028°56'917.3
2017-May-12 07:31N 37°07' W 029°07'917.6
2017-May-12 06:59N 37°07' W 029°19'817.7
2017-May-12 06:30N 37°06' W 029°29'917.3
2017-May-12 06:01N 37°06' W 029°40'  

Dump ship's entire track history